sensor_id;sensor_type;location;lat;lon;timestamp;P1;durP1;ratioP1;P2;durP2;ratioP2
11711;SDS011;5912;51.034;6.984;2024-02-21T00:00:54;12.02;;;4.53;;
11711;SDS011;5912;51.034;6.984;2024-02-21T00:03:19;10.27;;;4.88;;
11711;SDS011;5912;51.034;6.984;2024-02-21T00:05:45;13.32;;;5.25;;
11711;SDS011;5912;51.034;6.984;2024-02-21T00:08:10;12.55;;;4.95;;
11711;SDS011;5912;51.034;6.984;2024-02-21T00:10:36;9.18;;;4.38;;
11711;SDS011;5912;51.034;6.984;2024-02-21T00:13:02;8.90;;;4.63;;
11711;SDS011;5912;51.034;6.984;2024-02-21T00:15:28;12.75;;;4.65;;
11711;SDS011;5912;51.034;6.984;2024-02-21T00:17:53;12.48;;;4.95;;
11711;SDS011;5912;51.034;6.984;2024-02-21T00:20:19;10.20;;;4.90;;
11711;SDS011;5912;51.034;6.984;2024-02-21T00:22:45;12.40;;;4.60;;
11711;SDS011;5912;51.034;6.984;2024-02-21T00:25:10;12.15;;;4.65;;
11711;SDS011;5912;51.034;6.984;2024-02-21T00:27:36;9.57;;;4.80;;
11711;SDS011;5912;51.034;6.984;2024-02-21T00:30:02;6.53;;;4.03;;
11711;SDS011;5912;51.034;6.984;2024-02-21T00:32:28;9.20;;;4.68;;
11711;SDS011;5912;51.034;6.984;2024-02-21T00:34:54;13.07;;;5.03;;
11711;SDS011;5912;51.034;6.984;2024-02-21T00:37:19;10.35;;;4.60;;
11711;SDS011;5912;51.034;6.984;2024-02-21T00:39:45;12.73;;;5.18;;
11711;SDS011;5912;51.034;6.984;2024-02-21T00:42:10;8.63;;;4.72;;
11711;SDS011;5912;51.034;6.984;2024-02-21T00:44:36;8.25;;;4.30;;
11711;SDS011;5912;51.034;6.984;2024-02-21T00:47:01;10.00;;;4.78;;
11711;SDS011;5912;51.034;6.984;2024-02-21T00:49:27;12.10;;;5.60;;
11711;SDS011;5912;51.034;6.984;2024-02-21T00:51:52;13.73;;;6.00;;
11711;SDS011;5912;51.034;6.984;2024-02-21T00:54:18;12.15;;;5.18;;
11711;SDS011;5912;51.034;6.984;2024-02-21T00:56:43;9.57;;;4.63;;
11711;SDS011;5912;51.034;6.984;2024-02-21T00:59:09;11.32;;;4.93;;
11711;SDS011;5912;51.034;6.984;2024-02-21T01:01:34;14.32;;;5.43;;
11711;SDS011;5912;51.034;6.984;2024-02-21T01:04:00;13.63;;;4.95;;
11711;SDS011;5912;51.034;6.984;2024-02-21T01:06:26;10.32;;;4.78;;
11711;SDS011;5912;51.034;6.984;2024-02-21T01:08:51;11.63;;;5.00;;
11711;SDS011;5912;51.034;6.984;2024-02-21T01:11:17;12.13;;;4.65;;
11711;SDS011;5912;51.034;6.984;2024-02-21T01:13:43;10.63;;;4.57;;
11711;SDS011;5912;51.034;6.984;2024-02-21T01:16:09;15.30;;;4.85;;
11711;SDS011;5912;51.034;6.984;2024-02-21T01:18:38;13.48;;;4.80;;
11711;SDS011;5912;51.034;6.984;2024-02-21T01:21:05;12.35;;;4.72;;
11711;SDS011;5912;51.034;6.984;2024-02-21T01:23:34;8.93;;;4.40;;
11711;SDS011;5912;51.034;6.984;2024-02-21T01:26:01;17.58;;;5.53;;
11711;SDS011;5912;51.034;6.984;2024-02-21T01:28:28;10.95;;;4.60;;
11711;SDS011;5912;51.034;6.984;2024-02-21T01:30:54;14.90;;;5.38;;
11711;SDS011;5912;51.034;6.984;2024-02-21T01:33:20;7.75;;;4.25;;
11711;SDS011;5912;51.034;6.984;2024-02-21T01:35:46;10.27;;;5.07;;
11711;SDS011;5912;51.034;6.984;2024-02-21T01:38:14;10.63;;;4.65;;
11711;SDS011;5912;51.034;6.984;2024-02-21T01:40:40;17.17;;;5.20;;
11711;SDS011;5912;51.034;6.984;2024-02-21T01:43:14;14.30;;;5.40;;
11711;SDS011;5912;51.034;6.984;2024-02-21T01:45:42;9.68;;;4.63;;
11711;SDS011;5912;51.034;6.984;2024-02-21T01:48:07;8.40;;;5.03;;
11711;SDS011;5912;51.034;6.984;2024-02-21T01:50:33;11.13;;;4.93;;
11711;SDS011;5912;51.034;6.984;2024-02-21T01:52:59;8.95;;;4.80;;
11711;SDS011;5912;51.034;6.984;2024-02-21T01:55:25;10.73;;;5.10;;
11711;SDS011;5912;51.034;6.984;2024-02-21T01:57:51;12.43;;;5.13;;
11711;SDS011;5912;51.034;6.984;2024-02-21T02:00:17;11.82;;;5.10;;
11711;SDS011;5912;51.034;6.984;2024-02-21T02:02:42;11.10;;;5.05;;
11711;SDS011;5912;51.034;6.984;2024-02-21T02:05:10;13.55;;;6.15;;
11711;SDS011;5912;51.034;6.984;2024-02-21T02:07:36;8.68;;;5.13;;
11711;SDS011;5912;51.034;6.984;2024-02-21T02:10:01;12.95;;;4.95;;
11711;SDS011;5912;51.034;6.984;2024-02-21T02:12:27;9.32;;;4.95;;
11711;SDS011;5912;51.034;6.984;2024-02-21T02:15:02;10.68;;;4.90;;
11711;SDS011;5912;51.034;6.984;2024-02-21T02:17:31;13.73;;;5.20;;
11711;SDS011;5912;51.034;6.984;2024-02-21T02:19:57;9.23;;;5.07;;
11711;SDS011;5912;51.034;6.984;2024-02-21T02:22:25;12.13;;;4.82;;
11711;SDS011;5912;51.034;6.984;2024-02-21T02:24:54;14.63;;;5.43;;
11711;SDS011;5912;51.034;6.984;2024-02-21T02:27:20;10.23;;;5.13;;
11711;SDS011;5912;51.034;6.984;2024-02-21T02:29:48;11.18;;;5.30;;
11711;SDS011;5912;51.034;6.984;2024-02-21T02:32:13;11.05;;;5.43;;
11711;SDS011;5912;51.034;6.984;2024-02-21T02:34:39;11.27;;;5.07;;
11711;SDS011;5912;51.034;6.984;2024-02-21T02:37:04;11.93;;;4.90;;
11711;SDS011;5912;51.034;6.984;2024-02-21T02:39:30;12.15;;;5.10;;
11711;SDS011;5912;51.034;6.984;2024-02-21T02:41:55;13.73;;;5.50;;
11711;SDS011;5912;51.034;6.984;2024-02-21T02:44:21;9.70;;;5.18;;
11711;SDS011;5912;51.034;6.984;2024-02-21T02:46:46;10.13;;;4.95;;
11711;SDS011;5912;51.034;6.984;2024-02-21T02:49:12;11.35;;;4.65;;
11711;SDS011;5912;51.034;6.984;2024-02-21T02:51:41;8.18;;;4.60;;
11711;SDS011;5912;51.034;6.984;2024-02-21T02:54:08;12.30;;;4.97;;
11711;SDS011;5912;51.034;6.984;2024-02-21T02:56:33;12.30;;;5.15;;
11711;SDS011;5912;51.034;6.984;2024-02-21T02:58:59;12.65;;;5.03;;
11711;SDS011;5912;51.034;6.984;2024-02-21T03:01:24;11.00;;;4.50;;
11711;SDS011;5912;51.034;6.984;2024-02-21T03:03:50;9.60;;;4.20;;
11711;SDS011;5912;51.034;6.984;2024-02-21T03:06:15;11.82;;;4.57;;
11711;SDS011;5912;51.034;6.984;2024-02-21T03:08:41;12.18;;;4.53;;
11711;SDS011;5912;51.034;6.984;2024-02-21T03:11:07;9.38;;;4.93;;
11711;SDS011;5912;51.034;6.984;2024-02-21T03:13:33;10.10;;;4.60;;
11711;SDS011;5912;51.034;6.984;2024-02-21T03:15:59;9.25;;;4.10;;
11711;SDS011;5912;51.034;6.984;2024-02-21T03:18:24;7.72;;;3.95;;
11711;SDS011;5912;51.034;6.984;2024-02-21T03:20:50;12.43;;;4.43;;
11711;SDS011;5912;51.034;6.984;2024-02-21T03:23:15;9.75;;;4.10;;
11711;SDS011;5912;51.034;6.984;2024-02-21T03:25:41;8.90;;;4.38;;
11711;SDS011;5912;51.034;6.984;2024-02-21T03:28:07;7.63;;;3.92;;
11711;SDS011;5912;51.034;6.984;2024-02-21T03:30:32;6.80;;;3.90;;
11711;SDS011;5912;51.034;6.984;2024-02-21T03:32:58;9.55;;;4.53;;
11711;SDS011;5912;51.034;6.984;2024-02-21T03:35:24;8.07;;;4.00;;
11711;SDS011;5912;51.034;6.984;2024-02-21T03:37:51;10.10;;;3.90;;
11711;SDS011;5912;51.034;6.984;2024-02-21T03:40:17;10.05;;;4.03;;
11711;SDS011;5912;51.034;6.984;2024-02-21T03:42:43;10.15;;;4.32;;
11711;SDS011;5912;51.034;6.984;2024-02-21T03:45:09;8.30;;;3.95;;
11711;SDS011;5912;51.034;6.984;2024-02-21T03:47:34;12.68;;;4.35;;
11711;SDS011;5912;51.034;6.984;2024-02-21T03:50:00;9.70;;;4.07;;
11711;SDS011;5912;51.034;6.984;2024-02-21T03:52:25;6.57;;;3.38;;
11711;SDS011;5912;51.034;6.984;2024-02-21T03:54:51;13.57;;;4.10;;
11711;SDS011;5912;51.034;6.984;2024-02-21T03:57:16;7.43;;;3.70;;
11711;SDS011;5912;51.034;6.984;2024-02-21T03:59:42;7.03;;;3.60;;
11711;SDS011;5912;51.034;6.984;2024-02-21T04:02:08;8.20;;;3.40;;
11711;SDS011;5912;51.034;6.984;2024-02-21T04:04:36;10.23;;;4.13;;
11711;SDS011;5912;51.034;6.984;2024-02-21T04:07:02;8.25;;;3.70;;
11711;SDS011;5912;51.034;6.984;2024-02-21T04:09:31;10.90;;;4.20;;
11711;SDS011;5912;51.034;6.984;2024-02-21T04:11:58;10.50;;;3.92;;
11711;SDS011;5912;51.034;6.984;2024-02-21T04:14:24;6.57;;;3.35;;
11711;SDS011;5912;51.034;6.984;2024-02-21T04:16:50;9.75;;;3.65;;
11711;SDS011;5912;51.034;6.984;2024-02-21T04:19:15;11.82;;;3.75;;
11711;SDS011;5912;51.034;6.984;2024-02-21T04:21:40;10.00;;;3.90;;
11711;SDS011;5912;51.034;6.984;2024-02-21T04:24:06;11.80;;;4.38;;
11711;SDS011;5912;51.034;6.984;2024-02-21T04:26:31;7.75;;;3.78;;
11711;SDS011;5912;51.034;6.984;2024-02-21T04:28:57;6.80;;;3.58;;
11711;SDS011;5912;51.034;6.984;2024-02-21T04:31:22;9.50;;;3.65;;
11711;SDS011;5912;51.034;6.984;2024-02-21T04:33:53;7.50;;;3.45;;
11711;SDS011;5912;51.034;6.984;2024-02-21T04:36:18;11.10;;;3.80;;
11711;SDS011;5912;51.034;6.984;2024-02-21T04:38:44;9.30;;;3.80;;
11711;SDS011;5912;51.034;6.984;2024-02-21T04:41:10;10.10;;;3.50;;
11711;SDS011;5912;51.034;6.984;2024-02-21T04:43:35;12.25;;;4.00;;
11711;SDS011;5912;51.034;6.984;2024-02-21T04:46:01;8.63;;;3.85;;
11711;SDS011;5912;51.034;6.984;2024-02-21T04:48:27;9.43;;;3.63;;
11711;SDS011;5912;51.034;6.984;2024-02-21T04:50:52;9.77;;;3.67;;
11711;SDS011;5912;51.034;6.984;2024-02-21T04:53:18;8.10;;;3.72;;
11711;SDS011;5912;51.034;6.984;2024-02-21T04:55:43;9.90;;;3.70;;
11711;SDS011;5912;51.034;6.984;2024-02-21T04:58:09;7.65;;;3.75;;
11711;SDS011;5912;51.034;6.984;2024-02-21T05:00:34;9.30;;;4.13;;
11711;SDS011;5912;51.034;6.984;2024-02-21T05:03:00;8.48;;;4.07;;
11711;SDS011;5912;51.034;6.984;2024-02-21T05:05:25;6.72;;;3.33;;
11711;SDS011;5912;51.034;6.984;2024-02-21T05:07:51;7.65;;;3.72;;
11711;SDS011;5912;51.034;6.984;2024-02-21T05:10:16;13.75;;;3.90;;
11711;SDS011;5912;51.034;6.984;2024-02-21T05:12:43;8.15;;;4.15;;
11711;SDS011;5912;51.034;6.984;2024-02-21T05:17:56;9.45;;;4.07;;
11711;SDS011;5912;51.034;6.984;2024-02-21T05:20:22;11.07;;;4.10;;
11711;SDS011;5912;51.034;6.984;2024-02-21T05:22:47;10.35;;;3.50;;
11711;SDS011;5912;51.034;6.984;2024-02-21T05:25:13;8.38;;;4.00;;
11711;SDS011;5912;51.034;6.984;2024-02-21T05:27:39;10.10;;;4.10;;
11711;SDS011;5912;51.034;6.984;2024-02-21T05:30:05;11.15;;;4.20;;
11711;SDS011;5912;51.034;6.984;2024-02-21T05:32:31;7.70;;;4.20;;
11711;SDS011;5912;51.034;6.984;2024-02-21T05:34:57;8.43;;;4.20;;
11711;SDS011;5912;51.034;6.984;2024-02-21T05:37:23;9.68;;;4.32;;
11711;SDS011;5912;51.034;6.984;2024-02-21T05:39:49;9.55;;;4.30;;
11711;SDS011;5912;51.034;6.984;2024-02-21T05:42:14;8.52;;;4.00;;
11711;SDS011;5912;51.034;6.984;2024-02-21T05:44:40;7.07;;;3.60;;
11711;SDS011;5912;51.034;6.984;2024-02-21T05:47:06;8.15;;;4.22;;
11711;SDS011;5912;51.034;6.984;2024-02-21T05:49:36;7.57;;;4.00;;
11711;SDS011;5912;51.034;6.984;2024-02-21T05:52:02;9.25;;;4.28;;
11711;SDS011;5912;51.034;6.984;2024-02-21T05:54:27;9.13;;;4.03;;
11711;SDS011;5912;51.034;6.984;2024-02-21T05:56:53;9.35;;;3.95;;
11711;SDS011;5912;51.034;6.984;2024-02-21T05:59:19;7.18;;;3.65;;
11711;SDS011;5912;51.034;6.984;2024-02-21T06:01:44;7.43;;;3.60;;
11711;SDS011;5912;51.034;6.984;2024-02-21T06:04:10;6.50;;;3.38;;
11711;SDS011;5912;51.034;6.984;2024-02-21T06:06:36;7.47;;;3.65;;
11711;SDS011;5912;51.034;6.984;2024-02-21T06:09:01;7.78;;;3.78;;
11711;SDS011;5912;51.034;6.984;2024-02-21T06:11:28;8.05;;;3.28;;
11711;SDS011;5912;51.034;6.984;2024-02-21T06:13:54;9.68;;;4.28;;
11711;SDS011;5912;51.034;6.984;2024-02-21T06:16:19;7.13;;;3.83;;
11711;SDS011;5912;51.034;6.984;2024-02-21T06:18:46;8.00;;;4.22;;
11711;SDS011;5912;51.034;6.984;2024-02-21T06:21:11;5.72;;;3.88;;
11711;SDS011;5912;51.034;6.984;2024-02-21T06:23:49;5.57;;;3.17;;
11711;SDS011;5912;51.034;6.984;2024-02-21T06:26:15;9.15;;;4.20;;
11711;SDS011;5912;51.034;6.984;2024-02-21T06:28:40;9.68;;;3.90;;
11711;SDS011;5912;51.034;6.984;2024-02-21T06:31:06;6.82;;;3.72;;
11711;SDS011;5912;51.034;6.984;2024-02-21T06:33:31;6.97;;;3.72;;
11711;SDS011;5912;51.034;6.984;2024-02-21T06:35:57;6.05;;;3.72;;
11711;SDS011;5912;51.034;6.984;2024-02-21T06:38:22;8.15;;;4.03;;
11711;SDS011;5912;51.034;6.984;2024-02-21T06:40:48;6.22;;;3.42;;
11711;SDS011;5912;51.034;6.984;2024-02-21T06:46:38;7.85;;;3.22;;
11711;SDS011;5912;51.034;6.984;2024-02-21T06:49:04;7.32;;;3.55;;
11711;SDS011;5912;51.034;6.984;2024-02-21T06:51:29;5.93;;;3.67;;
11711;SDS011;5912;51.034;6.984;2024-02-21T06:53:55;6.30;;;3.20;;
11711;SDS011;5912;51.034;6.984;2024-02-21T06:56:24;7.20;;;3.13;;
11711;SDS011;5912;51.034;6.984;2024-02-21T06:58:54;5.03;;;3.22;;
11711;SDS011;5912;51.034;6.984;2024-02-21T07:01:23;5.43;;;3.08;;
11711;SDS011;5912;51.034;6.984;2024-02-21T07:03:49;6.43;;;2.95;;
11711;SDS011;5912;51.034;6.984;2024-02-21T07:06:15;12.80;;;3.90;;
11711;SDS011;5912;51.034;6.984;2024-02-21T07:08:40;5.55;;;3.88;;
11711;SDS011;5912;51.034;6.984;2024-02-21T07:11:06;6.43;;;3.38;;
11711;SDS011;5912;51.034;6.984;2024-02-21T07:13:32;5.65;;;3.42;;
11711;SDS011;5912;51.034;6.984;2024-02-21T07:15:57;4.95;;;3.30;;
11711;SDS011;5912;51.034;6.984;2024-02-21T07:18:23;8.23;;;3.80;;
11711;SDS011;5912;51.034;6.984;2024-02-21T07:20:50;5.82;;;3.60;;
11711;SDS011;5912;51.034;6.984;2024-02-21T07:23:16;7.20;;;3.55;;
11711;SDS011;5912;51.034;6.984;2024-02-21T07:25:43;8.32;;;3.65;;
11711;SDS011;5912;51.034;6.984;2024-02-21T07:28:08;6.88;;;4.00;;
11711;SDS011;5912;51.034;6.984;2024-02-21T07:30:34;5.22;;;3.65;;
11711;SDS011;5912;51.034;6.984;2024-02-21T07:33:00;7.78;;;3.58;;
11711;SDS011;5912;51.034;6.984;2024-02-21T07:35:41;5.72;;;3.60;;
11711;SDS011;5912;51.034;6.984;2024-02-21T07:38:09;7.13;;;3.53;;
11711;SDS011;5912;51.034;6.984;2024-02-21T07:40:37;6.03;;;3.17;;
11711;SDS011;5912;51.034;6.984;2024-02-21T07:43:03;7.07;;;3.70;;
11711;SDS011;5912;51.034;6.984;2024-02-21T07:45:28;8.77;;;4.55;;
11711;SDS011;5912;51.034;6.984;2024-02-21T07:47:54;6.20;;;4.03;;
11711;SDS011;5912;51.034;6.984;2024-02-21T07:50:20;9.40;;;4.85;;
11711;SDS011;5912;51.034;6.984;2024-02-21T07:52:46;7.25;;;3.88;;
11711;SDS011;5912;51.034;6.984;2024-02-21T07:55:11;7.95;;;3.42;;
11711;SDS011;5912;51.034;6.984;2024-02-21T07:57:37;6.40;;;3.13;;
11711;SDS011;5912;51.034;6.984;2024-02-21T08:00:03;7.50;;;3.00;;
11711;SDS011;5912;51.034;6.984;2024-02-21T08:02:29;6.53;;;2.75;;
11711;SDS011;5912;51.034;6.984;2024-02-21T08:04:55;5.15;;;2.70;;
11711;SDS011;5912;51.034;6.984;2024-02-21T08:07:20;6.18;;;3.70;;
11711;SDS011;5912;51.034;6.984;2024-02-21T08:09:46;8.30;;;2.95;;
11711;SDS011;5912;51.034;6.984;2024-02-21T08:12:11;8.95;;;2.95;;
11711;SDS011;5912;51.034;6.984;2024-02-21T08:14:37;6.20;;;2.55;;
11711;SDS011;5912;51.034;6.984;2024-02-21T08:17:11;6.75;;;2.90;;
11711;SDS011;5912;51.034;6.984;2024-02-21T08:19:37;6.95;;;3.13;;
11711;SDS011;5912;51.034;6.984;2024-02-21T08:22:02;9.25;;;3.03;;
11711;SDS011;5912;51.034;6.984;2024-02-21T08:24:28;7.57;;;2.70;;
11711;SDS011;5912;51.034;6.984;2024-02-21T08:26:53;6.55;;;3.00;;
11711;SDS011;5912;51.034;6.984;2024-02-21T08:29:19;5.47;;;2.80;;
11711;SDS011;5912;51.034;6.984;2024-02-21T08:34:32;12.25;;;3.20;;
11711;SDS011;5912;51.034;6.984;2024-02-21T08:36:59;8.38;;;3.13;;
11711;SDS011;5912;51.034;6.984;2024-02-21T08:39:25;7.15;;;2.60;;
11711;SDS011;5912;51.034;6.984;2024-02-21T08:41:51;5.88;;;2.90;;
11711;SDS011;5912;51.034;6.984;2024-02-21T08:44:16;9.98;;;3.75;;
11711;SDS011;5912;51.034;6.984;2024-02-21T08:46:42;8.27;;;3.10;;
11711;SDS011;5912;51.034;6.984;2024-02-21T08:49:07;7.50;;;2.90;;
11711;SDS011;5912;51.034;6.984;2024-02-21T08:51:35;5.68;;;2.88;;
11711;SDS011;5912;51.034;6.984;2024-02-21T08:54:00;9.88;;;2.92;;
11711;SDS011;5912;51.034;6.984;2024-02-21T08:56:27;9.00;;;3.22;;
11711;SDS011;5912;51.034;6.984;2024-02-21T08:58:52;7.25;;;3.33;;
11711;SDS011;5912;51.034;6.984;2024-02-21T09:01:18;7.45;;;3.20;;
11711;SDS011;5912;51.034;6.984;2024-02-21T09:03:43;7.80;;;3.53;;
11711;SDS011;5912;51.034;6.984;2024-02-21T09:06:09;8.52;;;3.42;;
11711;SDS011;5912;51.034;6.984;2024-02-21T09:08:35;8.85;;;3.65;;
11711;SDS011;5912;51.034;6.984;2024-02-21T09:11:01;5.68;;;3.00;;
11711;SDS011;5912;51.034;6.984;2024-02-21T09:13:26;7.28;;;3.03;;
11711;SDS011;5912;51.034;6.984;2024-02-21T09:15:54;7.88;;;3.50;;
11711;SDS011;5912;51.034;6.984;2024-02-21T09:18:19;9.43;;;4.00;;
11711;SDS011;5912;51.034;6.984;2024-02-21T09:20:45;8.02;;;3.05;;
11711;SDS011;5912;51.034;6.984;2024-02-21T09:23:11;8.93;;;3.40;;
11711;SDS011;5912;51.034;6.984;2024-02-21T09:25:37;6.75;;;2.70;;
11711;SDS011;5912;51.034;6.984;2024-02-21T09:28:03;8.48;;;3.10;;
11711;SDS011;5912;51.034;6.984;2024-02-21T09:30:31;9.93;;;2.97;;
11711;SDS011;5912;51.034;6.984;2024-02-21T09:32:57;10.93;;;3.58;;
11711;SDS011;5912;51.034;6.984;2024-02-21T09:35:26;8.60;;;3.08;;
11711;SDS011;5912;51.034;6.984;2024-02-21T09:37:53;7.30;;;3.38;;
11711;SDS011;5912;51.034;6.984;2024-02-21T09:40:18;6.80;;;2.58;;
11711;SDS011;5912;51.034;6.984;2024-02-21T09:42:44;6.15;;;2.83;;
11711;SDS011;5912;51.034;6.984;2024-02-21T09:45:23;10.05;;;3.25;;
11711;SDS011;5912;51.034;6.984;2024-02-21T09:50:44;4.45;;;2.58;;
11711;SDS011;5912;51.034;6.984;2024-02-21T09:53:12;8.68;;;2.90;;
11711;SDS011;5912;51.034;6.984;2024-02-21T09:55:39;8.15;;;2.53;;
11711;SDS011;5912;51.034;6.984;2024-02-21T09:58:07;5.57;;;2.22;;
11711;SDS011;5912;51.034;6.984;2024-02-21T10:00:34;5.45;;;2.50;;
11711;SDS011;5912;51.034;6.984;2024-02-21T10:03:00;5.50;;;2.80;;
11711;SDS011;5912;51.034;6.984;2024-02-21T10:05:26;8.20;;;3.25;;
11711;SDS011;5912;51.034;6.984;2024-02-21T10:07:52;7.65;;;2.88;;
11711;SDS011;5912;51.034;6.984;2024-02-21T10:10:19;7.68;;;2.50;;
11711;SDS011;5912;51.034;6.984;2024-02-21T10:12:53;7.15;;;2.72;;
11711;SDS011;5912;51.034;6.984;2024-02-21T10:15:23;5.25;;;2.40;;
11711;SDS011;5912;51.034;6.984;2024-02-21T10:17:57;6.53;;;2.50;;
11711;SDS011;5912;51.034;6.984;2024-02-21T10:20:24;6.07;;;2.20;;
11711;SDS011;5912;51.034;6.984;2024-02-21T10:22:59;6.68;;;2.85;;
11711;SDS011;5912;51.034;6.984;2024-02-21T10:25:38;7.55;;;2.88;;
11711;SDS011;5912;51.034;6.984;2024-02-21T10:28:06;8.05;;;2.72;;
11711;SDS011;5912;51.034;6.984;2024-02-21T10:30:32;8.10;;;3.03;;
11711;SDS011;5912;51.034;6.984;2024-02-21T10:32:58;4.43;;;1.83;;
11711;SDS011;5912;51.034;6.984;2024-02-21T10:35:27;4.53;;;1.83;;
11711;SDS011;5912;51.034;6.984;2024-02-21T10:37:56;7.85;;;2.35;;
11711;SDS011;5912;51.034;6.984;2024-02-21T10:40:26;11.00;;;2.83;;
11711;SDS011;5912;51.034;6.984;2024-02-21T10:42:58;8.20;;;3.03;;
11711;SDS011;5912;51.034;6.984;2024-02-21T10:47:55;10.98;;;2.50;;
11711;SDS011;5912;51.034;6.984;2024-02-21T10:50:24;7.28;;;2.20;;
11711;SDS011;5912;51.034;6.984;2024-02-21T10:52:55;9.15;;;2.95;;
11711;SDS011;5912;51.034;6.984;2024-02-21T10:55:38;8.18;;;2.85;;
11711;SDS011;5912;51.034;6.984;2024-02-21T10:58:12;9.02;;;3.35;;
11711;SDS011;5912;51.034;6.984;2024-02-21T11:00:38;7.13;;;3.38;;
11711;SDS011;5912;51.034;6.984;2024-02-21T11:03:05;6.07;;;2.92;;
11711;SDS011;5912;51.034;6.984;2024-02-21T11:05:30;7.75;;;2.97;;
11711;SDS011;5912;51.034;6.984;2024-02-21T11:07:58;10.05;;;2.47;;
11711;SDS011;5912;51.034;6.984;2024-02-21T11:10:23;6.07;;;2.70;;
11711;SDS011;5912;51.034;6.984;2024-02-21T11:13:08;7.45;;;2.80;;
11711;SDS011;5912;51.034;6.984;2024-02-21T11:15:34;9.57;;;3.25;;
11711;SDS011;5912;51.034;6.984;2024-02-21T11:17:59;8.23;;;4.10;;
11711;SDS011;5912;51.034;6.984;2024-02-21T11:20:34;7.30;;;3.55;;
11711;SDS011;5912;51.034;6.984;2024-02-21T11:23:01;6.15;;;2.50;;
11711;SDS011;5912;51.034;6.984;2024-02-21T11:25:27;9.27;;;3.38;;
11711;SDS011;5912;51.034;6.984;2024-02-21T11:28:01;11.50;;;4.28;;
11711;SDS011;5912;51.034;6.984;2024-02-21T11:30:31;8.75;;;3.97;;
11711;SDS011;5912;51.034;6.984;2024-02-21T11:33:00;6.90;;;2.67;;
11711;SDS011;5912;51.034;6.984;2024-02-21T11:35:31;9.50;;;3.00;;
11711;SDS011;5912;51.034;6.984;2024-02-21T11:38:08;10.55;;;3.83;;
11711;SDS011;5912;51.034;6.984;2024-02-21T11:40:38;9.75;;;3.90;;
11711;SDS011;5912;51.034;6.984;2024-02-21T11:43:05;9.02;;;2.95;;
11711;SDS011;5912;51.034;6.984;2024-02-21T11:45:31;7.32;;;2.40;;
11711;SDS011;5912;51.034;6.984;2024-02-21T11:47:57;6.40;;;2.30;;
11711;SDS011;5912;51.034;6.984;2024-02-21T11:50:25;6.57;;;2.17;;
11711;SDS011;5912;51.034;6.984;2024-02-21T11:52:54;5.95;;;2.20;;
11711;SDS011;5912;51.034;6.984;2024-02-21T11:55:20;6.93;;;2.63;;
11711;SDS011;5912;51.034;6.984;2024-02-21T11:57:47;5.38;;;1.95;;
11711;SDS011;5912;51.034;6.984;2024-02-21T12:00:17;7.35;;;2.00;;
11711;SDS011;5912;51.034;6.984;2024-02-21T12:02:45;6.00;;;2.58;;
11711;SDS011;5912;51.034;6.984;2024-02-21T12:05:11;4.13;;;2.40;;
11711;SDS011;5912;51.034;6.984;2024-02-21T12:07:36;6.00;;;2.13;;
11711;SDS011;5912;51.034;6.984;2024-02-21T12:10:08;5.22;;;2.20;;
11711;SDS011;5912;51.034;6.984;2024-02-21T12:12:37;5.75;;;2.00;;
11711;SDS011;5912;51.034;6.984;2024-02-21T12:15:04;5.15;;;2.33;;
11711;SDS011;5912;51.034;6.984;2024-02-21T12:17:32;9.00;;;2.42;;
11711;SDS011;5912;51.034;6.984;2024-02-21T12:20:01;8.05;;;1.98;;
11711;SDS011;5912;51.034;6.984;2024-02-21T12:25:55;6.00;;;2.40;;
11711;SDS011;5912;51.034;6.984;2024-02-21T12:28:20;5.82;;;2.35;;
11711;SDS011;5912;51.034;6.984;2024-02-21T12:30:47;5.40;;;1.95;;
11711;SDS011;5912;51.034;6.984;2024-02-21T12:33:12;11.45;;;2.53;;
11711;SDS011;5912;51.034;6.984;2024-02-21T12:35:39;4.65;;;2.42;;
11711;SDS011;5912;51.034;6.984;2024-02-21T12:38:05;7.93;;;3.33;;
11711;SDS011;5912;51.034;6.984;2024-02-21T12:40:30;6.43;;;2.50;;
11711;SDS011;5912;51.034;6.984;2024-02-21T12:42:59;9.38;;;2.17;;
11711;SDS011;5912;51.034;6.984;2024-02-21T12:45:25;5.85;;;1.95;;
11711;SDS011;5912;51.034;6.984;2024-02-21T12:47:51;5.50;;;2.15;;
11711;SDS011;5912;51.034;6.984;2024-02-21T12:50:16;6.45;;;2.22;;
11711;SDS011;5912;51.034;6.984;2024-02-21T12:52:42;4.25;;;2.00;;
11711;SDS011;5912;51.034;6.984;2024-02-21T12:55:08;6.97;;;2.22;;
11711;SDS011;5912;51.034;6.984;2024-02-21T12:57:35;6.25;;;2.45;;
11711;SDS011;5912;51.034;6.984;2024-02-21T13:00:02;6.40;;;2.50;;
11711;SDS011;5912;51.034;6.984;2024-02-21T13:02:28;6.30;;;2.63;;
11711;SDS011;5912;51.034;6.984;2024-02-21T13:04:54;7.88;;;3.67;;
11711;SDS011;5912;51.034;6.984;2024-02-21T13:07:19;11.38;;;3.22;;
11711;SDS011;5912;51.034;6.984;2024-02-21T13:09:45;8.82;;;3.35;;
11711;SDS011;5912;51.034;6.984;2024-02-21T13:12:11;7.00;;;2.67;;
11711;SDS011;5912;51.034;6.984;2024-02-21T13:14:37;4.47;;;2.25;;
11711;SDS011;5912;51.034;6.984;2024-02-21T13:17:04;6.40;;;2.20;;
11711;SDS011;5912;51.034;6.984;2024-02-21T13:19:29;6.05;;;2.55;;
11711;SDS011;5912;51.034;6.984;2024-02-21T13:21:55;5.38;;;2.53;;
11711;SDS011;5912;51.034;6.984;2024-02-21T13:24:20;3.55;;;2.00;;
11711;SDS011;5912;51.034;6.984;2024-02-21T13:26:46;8.85;;;2.78;;
11711;SDS011;5912;51.034;6.984;2024-02-21T13:29:11;4.28;;;2.00;;
11711;SDS011;5912;51.034;6.984;2024-02-21T13:31:37;8.80;;;2.60;;
11711;SDS011;5912;51.034;6.984;2024-02-21T13:34:03;9.43;;;2.90;;
11711;SDS011;5912;51.034;6.984;2024-02-21T13:36:28;6.32;;;2.75;;
11711;SDS011;5912;51.034;6.984;2024-02-21T13:38:54;6.38;;;2.25;;
11711;SDS011;5912;51.034;6.984;2024-02-21T13:41:20;5.75;;;2.30;;
11711;SDS011;5912;51.034;6.984;2024-02-21T13:43:48;9.80;;;3.15;;
11711;SDS011;5912;51.034;6.984;2024-02-21T13:46:14;8.95;;;3.50;;
11711;SDS011;5912;51.034;6.984;2024-02-21T13:48:39;9.60;;;3.75;;
11711;SDS011;5912;51.034;6.984;2024-02-21T13:51:05;5.05;;;2.20;;
11711;SDS011;5912;51.034;6.984;2024-02-21T13:53:31;5.28;;;2.35;;
11711;SDS011;5912;51.034;6.984;2024-02-21T13:55:56;5.40;;;2.30;;
11711;SDS011;5912;51.034;6.984;2024-02-21T13:58:22;7.70;;;2.88;;
11711;SDS011;5912;51.034;6.984;2024-02-21T14:00:48;5.68;;;2.58;;
11711;SDS011;5912;51.034;6.984;2024-02-21T14:03:14;8.25;;;2.92;;
11711;SDS011;5912;51.034;6.984;2024-02-21T14:05:39;4.35;;;1.92;;
11711;SDS011;5912;51.034;6.984;2024-02-21T14:08:06;7.55;;;2.35;;
11711;SDS011;5912;51.034;6.984;2024-02-21T14:10:31;5.35;;;2.15;;
11711;SDS011;5912;51.034;6.984;2024-02-21T14:12:58;7.43;;;2.25;;
11711;SDS011;5912;51.034;6.984;2024-02-21T14:15:24;5.60;;;2.15;;
11711;SDS011;5912;51.034;6.984;2024-02-21T14:17:50;6.30;;;2.30;;
11711;SDS011;5912;51.034;6.984;2024-02-21T14:20:16;11.23;;;3.35;;
11711;SDS011;5912;51.034;6.984;2024-02-21T14:22:41;14.57;;;4.10;;
11711;SDS011;5912;51.034;6.984;2024-02-21T14:25:07;6.63;;;2.85;;
11711;SDS011;5912;51.034;6.984;2024-02-21T14:27:33;9.07;;;2.90;;
11711;SDS011;5912;51.034;6.984;2024-02-21T14:30:01;7.53;;;3.05;;
11711;SDS011;5912;51.034;6.984;2024-02-21T14:32:27;6.68;;;2.88;;
11711;SDS011;5912;51.034;6.984;2024-02-21T14:34:53;6.60;;;2.78;;
11711;SDS011;5912;51.034;6.984;2024-02-21T14:37:19;6.25;;;2.33;;
11711;SDS011;5912;51.034;6.984;2024-02-21T14:39:44;6.93;;;2.47;;
11711;SDS011;5912;51.034;6.984;2024-02-21T14:42:10;5.35;;;2.25;;
11711;SDS011;5912;51.034;6.984;2024-02-21T14:44:36;4.07;;;1.80;;
11711;SDS011;5912;51.034;6.984;2024-02-21T14:47:02;4.45;;;1.92;;
11711;SDS011;5912;51.034;6.984;2024-02-21T14:49:28;7.90;;;2.10;;
11711;SDS011;5912;51.034;6.984;2024-02-21T14:51:54;4.90;;;2.10;;
11711;SDS011;5912;51.034;6.984;2024-02-21T14:54:25;5.25;;;2.03;;
11711;SDS011;5912;51.034;6.984;2024-02-21T14:56:51;4.75;;;2.20;;
11711;SDS011;5912;51.034;6.984;2024-02-21T14:59:16;5.40;;;2.20;;
11711;SDS011;5912;51.034;6.984;2024-02-21T15:01:42;4.18;;;2.03;;
11711;SDS011;5912;51.034;6.984;2024-02-21T15:04:07;5.28;;;2.60;;
11711;SDS011;5912;51.034;6.984;2024-02-21T15:06:33;6.97;;;2.08;;
11711;SDS011;5912;51.034;6.984;2024-02-21T15:09:01;5.80;;;2.35;;
11711;SDS011;5912;51.034;6.984;2024-02-21T15:11:28;3.72;;;1.85;;